Terminal Aerodrome Forecast
Issued by NWS

Home | Current Version | Previous Version | Text Only | Print | Product List | Glossary On
Versions: 1 2 3 4 5 6 7 8 9 10 11 12 13
000
FTUS45 KGGW 240520
TAFSDY
TAF
KSDY 240520Z 2406/2506 16007KT P6SM FEW170 WS020/17035KT
     FM241200 18006KT P6SM FEW180 WS020/19040KT
     FM241600 20010KT P6SM FEW160
     FM241800 29013KT P6SM FEW160
     FM242100 33014KT P6SM FEW160
     FM250300 34008KT P6SM FEW200=

USA.gov is the U.S. government's official web portal to all federal, state and local government web resources and services.